createdAt,value
2018-01-22T07:22:24.289Z,20.00
2018-01-22T07:24:51.826Z,21.27
2018-01-22T07:27:19.330Z,20.63
2018-01-22T07:29:47.788Z,19.87
2018-01-22T07:32:15.326Z,19.83
2018-01-22T07:34:42.829Z,21.47
2018-01-22T07:37:10.351Z,20.00
2018-01-22T07:39:37.840Z,22.33
2018-01-22T07:42:05.402Z,20.40
2018-01-22T07:44:33.783Z,21.30
2018-01-22T07:47:01.391Z,22.13
2018-01-22T07:49:30.104Z,21.67
2018-01-22T07:54:49.084Z,21.40
2018-01-22T07:57:16.579Z,22.03
2018-01-22T07:59:44.061Z,22.90
2018-01-22T08:02:11.564Z,22.43
2018-01-22T08:04:39.069Z,21.83
2018-01-22T08:07:06.579Z,21.30
2018-01-22T08:09:34.067Z,21.70
2018-01-22T08:12:01.577Z,22.10
2018-01-22T08:14:29.085Z,24.10
2018-01-22T08:16:56.602Z,22.37
2018-01-22T08:19:24.155Z,22.10
2018-01-22T08:21:51.720Z,23.27
2018-01-22T08:24:19.241Z,23.80
2018-01-22T08:26:46.829Z,22.97
2018-01-22T08:29:14.407Z,22.93
2018-01-22T08:31:41.927Z,23.30
2018-01-22T08:34:09.457Z,21.60
2018-01-22T08:36:36.998Z,20.87
2018-01-22T08:39:04.505Z,21.73
2018-01-22T08:41:31.993Z,21.07
2018-01-22T08:43:59.520Z,23.07
2018-01-22T08:46:27.150Z,19.73
2018-01-22T08:48:54.659Z,21.10
2018-01-22T08:51:22.193Z,20.13
2018-01-22T08:53:49.800Z,20.73
2018-01-22T08:56:17.334Z,20.07
2018-01-22T08:58:44.911Z,19.70
2018-01-22T09:01:12.402Z,20.63
2018-01-22T09:03:39.954Z,18.47
2018-01-22T09:06:07.537Z,19.70
2018-01-22T09:08:35.034Z,17.93
2018-01-22T09:11:02.600Z,18.23
2018-01-22T09:13:30.126Z,18.23
2018-01-22T09:15:57.695Z,18.47
2018-01-22T09:18:25.441Z,16.67
2018-01-22T09:20:53.101Z,16.93
2018-01-22T09:23:20.614Z,18.07
2018-01-22T09:25:48.127Z,16.73
2018-01-22T09:28:15.659Z,18.37
2018-01-22T09:30:43.183Z,17.13
2018-01-22T09:33:10.697Z,17.73
2018-01-22T09:35:38.212Z,15.93
2018-01-22T09:38:05.710Z,17.70
2018-01-22T09:40:33.258Z,16.57
2018-01-22T09:43:00.888Z,17.20
2018-01-22T09:45:28.426Z,16.30
2018-01-22T09:47:55.949Z,16.40
2018-01-22T09:50:23.501Z,16.57
2018-01-22T09:52:51.927Z,17.67
2018-01-22T09:55:19.450Z,17.40
2018-01-22T09:57:46.962Z,17.43
2018-01-22T10:00:14.502Z,18.43
2018-01-22T10:02:42.064Z,16.07
2018-01-22T10:05:09.783Z,17.63
2018-01-22T10:07:37.444Z,16.97
2018-01-22T10:10:04.960Z,17.10
2018-01-22T10:12:32.481Z,16.00
2018-01-22T10:15:00.112Z,15.90
2018-01-22T10:17:27.690Z,17.13
2018-01-22T10:19:55.247Z,17.30
2018-01-22T10:22:22.789Z,15.53
2018-01-22T10:24:50.442Z,16.63
2018-01-22T10:27:18.021Z,15.80
2018-01-22T10:29:45.527Z,16.67
2018-01-22T10:32:13.064Z,16.13
2018-01-22T10:34:40.563Z,16.70
2018-01-22T10:37:08.058Z,15.87
2018-01-22T10:39:35.565Z,16.93
2018-01-22T10:42:03.085Z,17.20
2018-01-22T10:44:30.587Z,15.27
2018-01-22T10:46:58.141Z,16.03
2018-01-22T10:49:25.661Z,15.73
2018-01-22T10:51:53.175Z,15.20
2018-01-22T10:54:20.676Z,15.77
2018-01-22T10:56:48.172Z,16.33
2018-01-22T10:59:15.660Z,15.43
2018-01-22T11:01:43.149Z,15.63
2018-01-22T11:04:10.683Z,15.33
2018-01-22T11:06:38.184Z,14.97
2018-01-22T11:09:05.694Z,14.93
2018-01-22T11:11:33.246Z,14.93
2018-01-22T11:14:00.894Z,15.03
2018-01-22T11:16:28.428Z,13.83
2018-01-22T11:18:55.971Z,14.33
2018-01-22T11:21:23.519Z,15.37
2018-01-22T11:23:51.072Z,14.70
2018-01-22T11:26:18.594Z,15.07
2018-01-22T11:28:46.098Z,14.40
2018-01-22T11:31:13.610Z,13.60
2018-01-22T11:33:41.326Z,14.60
2018-01-22T11:36:08.829Z,13.40
2018-01-22T11:38:36.341Z,13.83
2018-01-22T11:41:03.858Z,13.50
2018-01-22T11:43:33.955Z,13.57
2018-01-22T11:46:01.531Z,13.17
2018-01-22T11:48:29.074Z,12.00
2018-01-22T11:50:56.580Z,12.93
2018-01-22T11:53:24.077Z,12.37
2018-01-22T11:55:51.627Z,12.33
2018-01-22T11:58:19.137Z,13.07
2018-01-22T12:00:46.672Z,13.20
2018-01-22T12:03:14.165Z,12.60
2018-01-22T12:05:41.670Z,12.00
2018-01-22T12:08:09.189Z,12.27
2018-01-22T12:10:36.702Z,11.67
2018-01-22T12:13:04.196Z,12.07
2018-01-22T12:15:31.806Z,10.97
2018-01-22T12:17:59.309Z,11.73
2018-01-22T12:20:26.832Z,12.20
2018-01-22T12:22:54.343Z,12.80
2018-01-22T12:25:21.862Z,12.20
2018-01-22T12:27:49.461Z,12.77
2018-01-22T12:30:17.016Z,12.10
2018-01-22T12:32:44.551Z,12.20
2018-01-22T12:35:12.100Z,12.10
2018-01-22T12:37:39.599Z,11.10
2018-01-22T12:40:07.093Z,11.53
2018-01-22T12:42:34.647Z,11.67
2018-01-22T12:45:02.151Z,10.37
2018-01-22T12:47:29.647Z,11.87
2018-01-22T12:49:57.169Z,11.43
2018-01-22T12:52:24.696Z,11.33
2018-01-22T12:54:52.255Z,10.30
2018-01-22T12:57:19.803Z,11.23
2018-01-22T12:59:47.368Z,11.30
2018-01-22T13:02:14.879Z,9.77
2018-01-22T13:04:42.401Z,10.27
2018-01-22T13:07:10.144Z,10.67
2018-01-22T13:09:37.672Z,9.87
2018-01-22T13:12:05.182Z,10.27
2018-01-22T13:14:32.713Z,9.40
2018-01-22T13:17:00.252Z,9.97
2018-01-22T13:19:27.907Z,10.60
2018-01-22T13:21:55.505Z,9.23
2018-01-22T13:24:23.070Z,9.27
2018-01-22T13:26:50.617Z,9.70
2018-01-22T13:29:18.143Z,10.00
2018-01-22T13:31:45.662Z,9.20
2018-01-22T13:34:13.173Z,8.67
2018-01-22T13:36:40.683Z,8.33
2018-01-22T13:39:08.183Z,8.47
2018-01-22T13:41:35.692Z,8.07
2018-01-22T13:44:03.212Z,8.10
2018-01-22T13:46:30.713Z,7.57
2018-01-22T13:48:58.215Z,7.60
2018-01-22T13:51:25.750Z,8.60
2018-01-22T13:53:53.328Z,8.20
2018-01-22T13:56:20.835Z,7.77
2018-01-22T13:58:48.354Z,7.63
2018-01-22T14:01:16.006Z,7.90
2018-01-22T14:03:43.521Z,7.77
2018-01-22T14:06:11.021Z,8.30
2018-01-22T14:08:38.534Z,7.83
2018-01-22T14:11:06.076Z,8.20
2018-01-22T14:13:33.660Z,7.47
2018-01-22T14:16:01.177Z,8.30
2018-01-22T14:18:28.710Z,8.47
2018-01-22T14:20:56.371Z,8.47
2018-01-22T14:23:23.901Z,8.40
2018-01-22T14:25:51.442Z,9.13
2018-01-22T14:28:18.957Z,7.90
2018-01-22T14:30:46.473Z,8.63
2018-01-22T14:33:13.981Z,8.43
2018-01-22T14:35:41.479Z,8.33
2018-01-22T14:38:09.033Z,8.23
2018-01-22T14:40:36.590Z,7.70
2018-01-22T14:43:04.110Z,8.80
2018-01-22T14:45:31.630Z,9.07
2018-01-22T14:47:59.147Z,9.03
2018-01-22T14:50:26.647Z,8.93
2018-01-22T14:52:54.170Z,9.53
2018-01-22T14:55:21.677Z,8.80
2018-01-22T14:57:49.680Z,8.63
2018-01-22T15:00:17.191Z,9.70
2018-01-22T15:02:44.880Z,9.10
2018-01-22T15:05:13.262Z,9.07
2018-01-22T15:07:40.815Z,9.63
2018-01-22T15:10:08.304Z,9.17
2018-01-22T15:12:35.885Z,10.10
2018-01-22T15:15:03.400Z,11.20
2018-01-22T15:17:31.217Z,11.90
2018-01-22T15:19:58.726Z,12.73
2018-01-22T15:22:26.332Z,11.20
2018-01-22T15:24:54.135Z,11.93
2018-01-22T15:27:21.688Z,11.80
2018-01-22T15:29:49.201Z,11.73
2018-01-22T15:32:16.733Z,11.13
2018-01-22T15:34:44.304Z,11.63
2018-01-22T15:37:12.860Z,12.57
2018-01-22T15:39:40.413Z,12.57
2018-01-22T15:42:07.974Z,13.17
2018-01-22T15:44:35.530Z,11.27
2018-01-22T15:47:03.042Z,13.87
2018-01-22T15:49:30.682Z,12.57
2018-01-22T15:51:58.213Z,14.17
2018-01-22T15:54:25.820Z,13.23
2018-01-22T15:56:53.428Z,12.57
2018-01-22T15:59:20.992Z,12.57
2018-01-22T16:01:48.498Z,12.43
2018-01-22T16:04:16.109Z,12.53
2018-01-22T16:06:43.619Z,12.50
2018-01-22T16:09:11.193Z,12.53
2018-01-22T16:11:38.725Z,12.30
2018-01-22T16:14:06.254Z,11.43
2018-01-22T16:16:33.771Z,13.13
2018-01-22T16:19:01.352Z,11.90
2018-01-22T16:21:28.928Z,12.67
2018-01-22T16:23:56.458Z,12.47
2018-01-22T16:26:23.995Z,12.13
2018-01-22T16:28:51.514Z,11.63
2018-01-22T16:31:19.045Z,12.37
2018-01-22T16:33:46.562Z,11.97
2018-01-22T16:36:14.250Z,12.87
2018-01-22T16:38:41.814Z,12.83
2018-01-22T16:41:09.358Z,12.33
2018-01-22T16:43:36.858Z,12.47
2018-01-22T16:46:04.360Z,12.00
2018-01-22T16:48:31.898Z,12.90
2018-01-22T16:50:59.455Z,13.17
2018-01-22T16:53:27.009Z,12.20
2018-01-22T16:55:54.517Z,12.00
2018-01-22T16:58:22.069Z,14.20
2018-01-22T17:00:49.566Z,14.60
2018-01-22T17:03:17.088Z,13.07
2018-01-22T17:05:44.577Z,12.97
2018-01-22T17:08:12.081Z,14.33
2018-01-22T17:10:39.603Z,13.73
2018-01-22T17:13:07.091Z,15.07
2018-01-22T17:15:34.595Z,14.43
2018-01-22T17:18:02.152Z,14.23
2018-01-22T17:20:29.691Z,15.43
2018-01-22T17:22:57.193Z,14.83
2018-01-22T17:25:24.789Z,14.97
2018-01-22T17:27:52.318Z,15.83
2018-01-22T17:30:19.865Z,16.27
2018-01-22T17:32:47.427Z,15.27
2018-01-22T17:35:14.966Z,15.47
2018-01-22T17:37:42.489Z,17.00
2018-01-22T17:40:10.021Z,15.97
2018-01-22T17:42:37.545Z,16.20
2018-01-22T17:45:06.261Z,16.63
2018-01-22T17:47:33.838Z,16.43
2018-01-22T17:50:01.354Z,16.23
2018-01-22T17:52:28.872Z,17.03
2018-01-22T17:54:56.399Z,17.17
2018-01-22T17:57:24.107Z,16.77
2018-01-22T17:59:51.662Z,17.93
2018-01-22T18:02:19.261Z,17.30
2018-01-22T18:04:47.117Z,18.43
2018-01-22T18:07:14.703Z,18.00
2018-01-22T18:09:42.234Z,18.87
2018-01-22T18:12:10.276Z,19.13
2018-01-22T18:14:37.819Z,17.43
2018-01-22T18:17:05.417Z,19.23
2018-01-22T18:19:32.994Z,21.20
2018-01-22T18:22:00.572Z,20.30
2018-01-22T18:24:28.061Z,21.30
2018-01-22T18:26:55.574Z,20.20
2018-01-22T18:29:23.301Z,20.33
2018-01-22T18:31:51.258Z,21.57
2018-01-22T18:34:18.828Z,20.13
2018-01-22T18:36:46.348Z,21.90
2018-01-22T18:39:13.919Z,22.73
2018-01-22T18:41:42.915Z,22.00
2018-01-22T18:44:13.204Z,22.27
2018-01-22T18:46:40.985Z,22.77
2018-01-22T18:49:08.539Z,22.93
2018-01-22T18:51:36.118Z,21.70
2018-01-22T18:54:03.664Z,20.27
2018-01-22T18:56:31.324Z,20.40
2018-01-22T18:58:58.873Z,22.37
2018-01-22T19:01:26.455Z,22.10
2018-01-22T19:03:53.978Z,19.70
2018-01-22T19:06:21.481Z,22.37
2018-01-22T19:08:48.985Z,22.37
2018-01-22T19:11:16.573Z,22.47
2018-01-22T19:13:44.246Z,24.47
2018-01-22T19:16:11.756Z,21.10
2018-01-22T19:18:39.285Z,22.77
2018-01-22T19:21:06.869Z,21.27
2018-01-22T19:23:34.390Z,20.47
2018-01-22T19:26:01.984Z,20.70
2018-01-22T19:28:29.523Z,20.77
2018-01-22T19:30:57.040Z,21.37
2018-01-22T19:33:24.583Z,20.70
2018-01-22T19:35:52.096Z,20.03
2018-01-22T19:38:19.594Z,20.23
2018-01-22T19:40:47.097Z,19.23
2018-01-22T19:43:14.664Z,20.67
2018-01-22T19:45:42.369Z,20.57
2018-01-22T19:48:09.978Z,19.90
2018-01-22T19:50:37.500Z,20.50
2018-01-22T19:53:05.045Z,20.57
2018-01-22T19:55:33.023Z,18.87
2018-01-22T19:58:00.602Z,19.67
2018-01-22T20:00:28.162Z,21.37
2018-01-22T20:02:55.657Z,20.20
2018-01-22T20:05:23.181Z,20.37
2018-01-22T20:07:50.708Z,19.33
2018-01-22T20:10:18.240Z,20.50
2018-01-22T20:12:45.750Z,19.47
2018-01-22T20:15:13.338Z,20.10
2018-01-22T20:17:40.853Z,18.83
2018-01-22T20:20:08.354Z,19.80
2018-01-22T20:22:35.890Z,22.47
2018-01-22T20:25:03.490Z,20.23
2018-01-22T20:27:30.986Z,20.40
2018-01-22T20:29:58.498Z,20.77
2018-01-22T20:32:26.108Z,19.43
2018-01-22T20:34:53.776Z,19.73
2018-01-22T20:37:21.361Z,18.90
2018-01-22T20:39:48.892Z,18.90
2018-01-22T20:42:16.430Z,20.33
2018-01-22T20:44:43.932Z,19.87
2018-01-22T20:47:11.416Z,20.03
2018-01-22T20:49:39.046Z,18.97
2018-01-22T20:52:06.549Z,19.67
2018-01-22T20:54:34.071Z,18.57
2018-01-22T20:57:01.761Z,18.73
2018-01-22T20:59:29.397Z,18.83
2018-01-22T21:01:56.930Z,18.97
2018-01-22T21:04:25.125Z,19.50
2018-01-22T21:06:52.676Z,18.13
2018-01-22T21:09:20.187Z,18.63
2018-01-22T21:11:47.715Z,18.43
2018-01-22T21:14:15.252Z,18.07
2018-01-22T21:16:42.828Z,19.10
2018-01-22T21:19:10.323Z,16.83
2018-01-22T21:21:37.885Z,18.33
2018-01-22T21:24:07.299Z,18.17
2018-01-22T21:26:35.278Z,19.20
2018-01-22T21:29:02.824Z,18.40
2018-01-22T21:31:30.356Z,18.23
2018-01-22T21:33:57.908Z,17.10
2018-01-22T21:36:25.457Z,17.60
2018-01-22T21:38:53.099Z,18.13
2018-01-22T21:41:20.684Z,18.77
2018-01-22T21:43:48.203Z,19.13
2018-01-22T21:46:15.888Z,19.47
2018-01-22T21:48:43.459Z,21.33
2018-01-22T21:51:11.016Z,21.40
2018-01-22T21:53:38.577Z,21.63
2018-01-22T21:56:06.108Z,21.03
2018-01-22T21:58:33.633Z,22.50
2018-01-22T22:01:01.201Z,20.37
2018-01-22T22:03:28.764Z,22.27
2018-01-22T22:05:56.275Z,20.90
2018-01-22T22:08:23.782Z,22.97
2018-01-22T22:10:51.315Z,23.70
2018-01-22T22:13:18.883Z,24.27
2018-01-22T22:15:46.498Z,22.50
2018-01-22T22:18:14.078Z,22.30
2018-01-22T22:20:41.589Z,24.33
2018-01-22T22:23:09.087Z,23.67
2018-01-22T22:25:36.655Z,25.13
2018-01-22T22:28:04.282Z,24.27
2018-01-22T22:30:31.789Z,26.53
2018-01-22T22:32:59.302Z,25.90
2018-01-22T22:35:26.832Z,27.40
2018-01-22T22:37:54.356Z,24.43
2018-01-22T22:40:21.913Z,25.60
2018-01-22T22:42:49.494Z,26.40
2018-01-22T22:45:17.010Z,24.83
2018-01-22T22:47:44.522Z,25.47
2018-01-22T22:50:12.105Z,26.13
2018-01-22T22:52:39.632Z,24.47
2018-01-22T22:55:07.153Z,25.83
2018-01-22T22:57:34.685Z,26.43
2018-01-22T23:00:02.236Z,25.77
2018-01-22T23:02:29.753Z,26.47
2018-01-22T23:04:57.322Z,26.10
2018-01-22T23:07:24.856Z,25.73
2018-01-22T23:09:52.413Z,26.97
2018-01-22T23:12:19.926Z,25.47
2018-01-22T23:14:47.469Z,26.20
2018-01-22T23:17:15.006Z,26.93
2018-01-22T23:19:42.548Z,25.73
2018-01-22T23:22:10.108Z,27.07
2018-01-22T23:24:37.605Z,26.03
2018-01-22T23:27:05.150Z,24.70
2018-01-22T23:29:32.670Z,26.73
2018-01-22T23:32:00.175Z,25.87
2018-01-22T23:34:27.706Z,25.07
2018-01-22T23:36:55.258Z,25.80
2018-01-22T23:39:22.771Z,26.73
2018-01-22T23:41:50.305Z,24.93
2018-01-22T23:44:17.862Z,26.30
2018-01-22T23:46:45.425Z,25.20
2018-01-22T23:49:12.947Z,25.87
2018-01-22T23:51:40.466Z,24.90
2018-01-22T23:54:07.958Z,25.27
2018-01-22T23:56:35.467Z,23.73
2018-01-22T23:59:02.986Z,25.30
